気象予報士の航空気象 変わらない気温

*All archives   *Admin

2010.02.15 (Mon)

変わらない気温

RJTT 142130Z 35006KT 9999 BKN020 BKN100 06/M02 Q1022 RMK 5SC020 7AC100 A3019


関東は肌寒い日が続いています。


日の出はだいたい6時30分くらいです。


その時の気温は6度。


RJTT 150300Z 34009KT 7000 -RA FEW008 SCT020 BKN030 06/01 Q1018 RMK 1ST008 3SC020 7SC030 A3007


12時の気温は6℃。


RJTT 150600Z 36011KT 3000 RA BR FEW006 BKN012 06/04 Q1015 RMK 1ST006 7SC012 A2997


午後3時、気温6℃。


RJTT 150900Z 01016KT 4000 -RA BR FEW005 SCT008 BKN010 06/05 Q1012 RMK 1ST005 3ST008 6ST010 A2989


午後6時も気温6℃。


朝の間は、雲のおふとんによって放射冷却を防がれたため、それほど気温は下がりません。


昼間にかけて、気温が上がりません。


なぜか?


北風は少し強くなっただけで、大きな変化はありません。


曇っているので、もともと気温の日変化は小さくはあんります。


昼前から雨が降り始めて、露点温度がM1℃から昼過ぎには4℃まで上昇。

RJTT 150030Z 34009KT 9999 FEW020 BKN050 06/M01 Q1021 RMK 2SC020 7SC050 A3015

RJTT 150100Z 33009KT 9999 -RA FEW020 BKN040 06/M01 Q1020 RMK 2SC020 7SC040 A3014

RJTT 150500Z 34009KT 5000 -RA BR FEW008 SCT020 BKN030 06/04 Q1015 RMK 1ST008 3SC020 6SC030 A2998


上空から振って来た雪が溶けるために必要なエネルギーを奪っていることが考えられます。


また、気温がそのままで湿っているということは、それだけで地表の気塊のもつエネルギーは上昇しています。


この二つの要因で気温が上昇しなかったのかな?




ブログランキングに参加しています。
にほんブログ村 環境ブログ 天気・気象学へ
にほんブログ村
応援クリックをおねがします。


以下、アフィリエイトサイトです。




スポンサーサイト
22:18  |  気象・天気  |  TB(0)  |  CM(0)  |  EDIT  |  Top↑

コメントを投稿する


 管理者だけに表示  (非公開コメント投稿可能)

▲PageTop

この記事のトラックバックURL

→http://weathereucalyptus.blog115.fc2.com/tb.php/394-9b161483
この記事にトラックバックする(FC2ブログユーザー)

この記事へのトラックバック

▲PageTop

 | BLOGTOP |